sensor_id;sensor_type;location;lat;lon;timestamp;pressure;altitude;pressure_sealevel;temperature;humidity
23417;BME280;11881;42.432;25.632;2022-11-15T00:01:43;99967.75;;;11.08;100.00
23417;BME280;11881;42.432;25.632;2022-11-15T00:04:09;99969.56;;;11.08;100.00
23417;BME280;11881;42.432;25.632;2022-11-15T00:06:35;99967.13;;;11.05;100.00
23417;BME280;11881;42.432;25.632;2022-11-15T00:09:01;99964.66;;;11.13;100.00
23417;BME280;11881;42.432;25.632;2022-11-15T00:11:27;99962.00;;;11.13;100.00
23417;BME280;11881;42.432;25.632;2022-11-15T00:13:56;99959.34;;;11.13;100.00
23417;BME280;11881;42.432;25.632;2022-11-15T00:16:23;99952.22;;;11.13;100.00
23417;BME280;11881;42.432;25.632;2022-11-15T00:18:49;99949.41;;;11.15;100.00
23417;BME280;11881;42.432;25.632;2022-11-15T00:21:15;99951.00;;;11.06;100.00
23417;BME280;11881;42.432;25.632;2022-11-15T00:23:40;99957.31;;;11.05;100.00
23417;BME280;11881;42.432;25.632;2022-11-15T00:26:06;99952.44;;;11.10;100.00
23417;BME280;11881;42.432;25.632;2022-11-15T00:28:32;99942.25;;;11.15;100.00
23417;BME280;11881;42.432;25.632;2022-11-15T00:31:06;99951.91;;;11.28;100.00
23417;BME280;11881;42.432;25.632;2022-11-15T00:33:32;99944.22;;;11.13;100.00
23417;BME280;11881;42.432;25.632;2022-11-15T00:36:07;99936.78;;;11.17;100.00
23417;BME280;11881;42.432;25.632;2022-11-15T00:38:35;99938.38;;;11.19;100.00
23417;BME280;11881;42.432;25.632;2022-11-15T00:41:02;99930.75;;;11.15;100.00
23417;BME280;11881;42.432;25.632;2022-11-15T00:43:28;99922.69;;;11.26;100.00
23417;BME280;11881;42.432;25.632;2022-11-15T00:45:54;99930.38;;;11.19;100.00
23417;BME280;11881;42.432;25.632;2022-11-15T00:48:20;99929.53;;;11.19;100.00
23417;BME280;11881;42.432;25.632;2022-11-15T00:50:45;99922.75;;;11.15;100.00
23417;BME280;11881;42.432;25.632;2022-11-15T00:53:11;99920.41;;;11.22;100.00
23417;BME280;11881;42.432;25.632;2022-11-15T00:55:37;99914.09;;;11.23;100.00
23417;BME280;11881;42.432;25.632;2022-11-15T00:58:02;99919.59;;;11.10;100.00
23417;BME280;11881;42.432;25.632;2022-11-15T01:00:27;99917.75;;;11.22;100.00
23417;BME280;11881;42.432;25.632;2022-11-15T01:02:53;99917.47;;;11.25;100.00
23417;BME280;11881;42.432;25.632;2022-11-15T01:05:19;99911.28;;;11.24;100.00
23417;BME280;11881;42.432;25.632;2022-11-15T01:07:44;99901.34;;;11.26;100.00
23417;BME280;11881;42.432;25.632;2022-11-15T01:10:10;99908.53;;;11.26;100.00
23417;BME280;11881;42.432;25.632;2022-11-15T01:12:35;99905.25;;;11.22;100.00
23417;BME280;11881;42.432;25.632;2022-11-15T01:15:01;99905.00;;;11.25;100.00
23417;BME280;11881;42.432;25.632;2022-11-15T01:17:26;99889.56;;;11.29;100.00
23417;BME280;11881;42.432;25.632;2022-11-15T01:19:52;99893.34;;;11.26;100.00
23417;BME280;11881;42.432;25.632;2022-11-15T01:22:18;99891.31;;;11.18;100.00
23417;BME280;11881;42.432;25.632;2022-11-15T01:24:43;99887.78;;;11.18;100.00
23417;BME280;11881;42.432;25.632;2022-11-15T01:27:09;99897.00;;;11.25;100.00
23417;BME280;11881;42.432;25.632;2022-11-15T01:29:34;99895.22;;;11.14;100.00
23417;BME280;11881;42.432;25.632;2022-11-15T01:32:00;99894.13;;;11.17;100.00
23417;BME280;11881;42.432;25.632;2022-11-15T01:34:25;99893.44;;;11.04;100.00
23417;BME280;11881;42.432;25.632;2022-11-15T01:36:51;99893.22;;;10.96;100.00
23417;BME280;11881;42.432;25.632;2022-11-15T01:39:16;99895.28;;;11.03;100.00
23417;BME280;11881;42.432;25.632;2022-11-15T01:41:42;99891.25;;;11.09;100.00
23417;BME280;11881;42.432;25.632;2022-11-15T01:47:04;99885.13;;;11.18;100.00
23417;BME280;11881;42.432;25.632;2022-11-15T01:49:33;99892.56;;;11.14;100.00
23417;BME280;11881;42.432;25.632;2022-11-15T01:52:02;99879.34;;;11.13;100.00
23417;BME280;11881;42.432;25.632;2022-11-15T01:54:29;99887.97;;;11.05;100.00
23417;BME280;11881;42.432;25.632;2022-11-15T01:57:02;99890.66;;;11.05;100.00
23417;BME280;11881;42.432;25.632;2022-11-15T01:59:29;99886.75;;;11.09;100.00
23417;BME280;11881;42.432;25.632;2022-11-15T02:01:55;99882.47;;;11.18;100.00
23417;BME280;11881;42.432;25.632;2022-11-15T02:04:26;99873.75;;;11.16;100.00
23417;BME280;11881;42.432;25.632;2022-11-15T02:06:52;99880.91;;;11.15;100.00
23417;BME280;11881;42.432;25.632;2022-11-15T02:09:18;99873.72;;;11.27;100.00
23417;BME280;11881;42.432;25.632;2022-11-15T02:11:44;99873.56;;;11.29;100.00
23417;BME280;11881;42.432;25.632;2022-11-15T02:14:13;99874.09;;;11.23;100.00
23417;BME280;11881;42.432;25.632;2022-11-15T02:22:23;99863.09;;;11.16;100.00
23417;BME280;11881;42.432;25.632;2022-11-15T02:25:37;99864.41;;;11.22;100.00
23417;BME280;11881;42.432;25.632;2022-11-15T02:30:45;99859.31;;;11.18;100.00
23417;BME280;11881;42.432;25.632;2022-11-15T02:33:26;99871.69;;;11.19;100.00
23417;BME280;11881;42.432;25.632;2022-11-15T02:42:02;99867.06;;;11.22;100.00
23417;BME280;11881;42.432;25.632;2022-11-15T02:44:37;99866.59;;;11.16;100.00
23417;BME280;11881;42.432;25.632;2022-11-15T02:47:09;99861.25;;;11.16;100.00
23417;BME280;11881;42.432;25.632;2022-11-15T02:49:51;99861.59;;;11.23;100.00
23417;BME280;11881;42.432;25.632;2022-11-15T02:52:19;99857.50;;;11.19;100.00
23417;BME280;11881;42.432;25.632;2022-11-15T02:54:57;99862.75;;;11.30;100.00
23417;BME280;11881;42.432;25.632;2022-11-15T02:57:45;99866.16;;;11.32;100.00
23417;BME280;11881;42.432;25.632;2022-11-15T03:00:19;99868.63;;;11.24;100.00
23417;BME280;11881;42.432;25.632;2022-11-15T03:08:29;99850.41;;;11.29;100.00
23417;BME280;11881;42.432;25.632;2022-11-15T03:11:17;99854.19;;;11.27;100.00
23417;BME280;11881;42.432;25.632;2022-11-15T03:13:53;99848.84;;;11.27;100.00
23417;BME280;11881;42.432;25.632;2022-11-15T03:19:17;99849.50;;;11.19;100.00
23417;BME280;11881;42.432;25.632;2022-11-15T03:21:45;99846.84;;;11.19;100.00
23417;BME280;11881;42.432;25.632;2022-11-15T03:24:14;99843.19;;;11.20;100.00
23417;BME280;11881;42.432;25.632;2022-11-15T03:26:42;99843.81;;;11.12;100.00
23417;BME280;11881;42.432;25.632;2022-11-15T03:29:13;99845.63;;;10.91;100.00
23417;BME280;11881;42.432;25.632;2022-11-15T03:31:44;99842.22;;;10.89;100.00
23417;BME280;11881;42.432;25.632;2022-11-15T03:34:37;99840.16;;;10.92;100.00
23417;BME280;11881;42.432;25.632;2022-11-15T03:37:04;99836.31;;;10.85;100.00
23417;BME280;11881;42.432;25.632;2022-11-15T03:39:30;99836.13;;;10.66;100.00
23417;BME280;11881;42.432;25.632;2022-11-15T03:44:54;99830.72;;;10.88;100.00
23417;BME280;11881;42.432;25.632;2022-11-15T03:47:29;99825.06;;;10.82;100.00
23417;BME280;11881;42.432;25.632;2022-11-15T03:50:00;99826.38;;;10.87;100.00
23417;BME280;11881;42.432;25.632;2022-11-15T03:52:31;99823.47;;;10.90;100.00
23417;BME280;11881;42.432;25.632;2022-11-15T03:55:00;99827.16;;;10.99;100.00
23417;BME280;11881;42.432;25.632;2022-11-15T03:57:26;99817.94;;;11.03;100.00
23417;BME280;11881;42.432;25.632;2022-11-15T03:59:51;99823.13;;;11.05;100.00
23417;BME280;11881;42.432;25.632;2022-11-15T04:02:16;99818.38;;;10.87;100.00
23417;BME280;11881;42.432;25.632;2022-11-15T04:04:42;99824.03;;;10.94;100.00
23417;BME280;11881;42.432;25.632;2022-11-15T04:07:07;99818.97;;;10.91;100.00
23417;BME280;11881;42.432;25.632;2022-11-15T04:09:33;99809.00;;;10.93;100.00
23417;BME280;11881;42.432;25.632;2022-11-15T04:11:58;99823.69;;;10.87;100.00
23417;BME280;11881;42.432;25.632;2022-11-15T04:14:23;99819.13;;;10.78;100.00
23417;BME280;11881;42.432;25.632;2022-11-15T04:16:49;99808.69;;;10.86;100.00
23417;BME280;11881;42.432;25.632;2022-11-15T04:19:14;99818.75;;;10.83;100.00
23417;BME280;11881;42.432;25.632;2022-11-15T04:21:58;99812.63;;;10.71;100.00
23417;BME280;11881;42.432;25.632;2022-11-15T04:24:42;99809.94;;;10.71;100.00
23417;BME280;11881;42.432;25.632;2022-11-15T04:27:07;99812.75;;;10.70;100.00
23417;BME280;11881;42.432;25.632;2022-11-15T04:29:33;99806.19;;;10.74;100.00
23417;BME280;11881;42.432;25.632;2022-11-15T04:32:03;99813.25;;;10.63;100.00
23417;BME280;11881;42.432;25.632;2022-11-15T04:34:29;99808.97;;;10.72;100.00
23417;BME280;11881;42.432;25.632;2022-11-15T04:36:54;99812.19;;;10.87;100.00
23417;BME280;11881;42.432;25.632;2022-11-15T04:39:41;99818.88;;;10.81;100.00
23417;BME280;11881;42.432;25.632;2022-11-15T04:42:08;99805.34;;;10.73;100.00
23417;BME280;11881;42.432;25.632;2022-11-15T04:44:33;99831.97;;;10.84;100.00
23417;BME280;11881;42.432;25.632;2022-11-15T04:47:00;99814.91;;;10.76;100.00
23417;BME280;11881;42.432;25.632;2022-11-15T04:49:25;99819.47;;;10.85;100.00
23417;BME280;11881;42.432;25.632;2022-11-15T04:51:51;99811.91;;;10.90;100.00
23417;BME280;11881;42.432;25.632;2022-11-15T04:54:16;99814.25;;;10.83;100.00
23417;BME280;11881;42.432;25.632;2022-11-15T04:56:42;99810.50;;;10.86;100.00
23417;BME280;11881;42.432;25.632;2022-11-15T04:59:07;99807.84;;;10.86;100.00
23417;BME280;11881;42.432;25.632;2022-11-15T05:01:33;99808.81;;;10.85;100.00
23417;BME280;11881;42.432;25.632;2022-11-15T05:03:58;99809.78;;;10.84;100.00
23417;BME280;11881;42.432;25.632;2022-11-15T05:06:43;99801.66;;;10.85;100.00
23417;BME280;11881;42.432;25.632;2022-11-15T05:09:08;99802.50;;;10.86;100.00
23417;BME280;11881;42.432;25.632;2022-11-15T05:11:33;99801.00;;;10.93;100.00
23417;BME280;11881;42.432;25.632;2022-11-15T05:13:59;99804.44;;;10.84;100.00
23417;BME280;11881;42.432;25.632;2022-11-15T05:16:24;99795.03;;;10.80;100.00
23417;BME280;11881;42.432;25.632;2022-11-15T05:18:53;99805.19;;;10.86;100.00
23417;BME280;11881;42.432;25.632;2022-11-15T05:21:20;99800.56;;;10.88;100.00
23417;BME280;11881;42.432;25.632;2022-11-15T05:23:45;99799.84;;;11.07;100.00
23417;BME280;11881;42.432;25.632;2022-11-15T05:26:11;99807.00;;;11.06;100.00
23417;BME280;11881;42.432;25.632;2022-11-15T05:28:37;99799.84;;;10.86;100.00
23417;BME280;11881;42.432;25.632;2022-11-15T05:31:08;99805.75;;;10.89;100.00
23417;BME280;11881;42.432;25.632;2022-11-15T05:33:34;99807.63;;;10.78;100.00
23417;BME280;11881;42.432;25.632;2022-11-15T05:36:21;99809.06;;;10.82;100.00
23417;BME280;11881;42.432;25.632;2022-11-15T05:38:48;99806.22;;;10.95;100.00
23417;BME280;11881;42.432;25.632;2022-11-15T05:41:15;99813.50;;;10.92;100.00
23417;BME280;11881;42.432;25.632;2022-11-15T05:43:43;99818.13;;;10.90;100.00
23417;BME280;11881;42.432;25.632;2022-11-15T05:46:09;99821.38;;;10.94;100.00
23417;BME280;11881;42.432;25.632;2022-11-15T05:48:35;99818.13;;;10.90;100.00
23417;BME280;11881;42.432;25.632;2022-11-15T05:51:03;99823.56;;;10.89;100.00
23417;BME280;11881;42.432;25.632;2022-11-15T05:53:30;99832.03;;;10.94;100.00
23417;BME280;11881;42.432;25.632;2022-11-15T05:55:56;99828.47;;;11.05;100.00
23417;BME280;11881;42.432;25.632;2022-11-15T05:58:22;99824.97;;;11.04;100.00
23417;BME280;11881;42.432;25.632;2022-11-15T06:00:47;99826.56;;;10.96;100.00
23417;BME280;11881;42.432;25.632;2022-11-15T06:03:13;99829.88;;;10.88;100.00
23417;BME280;11881;42.432;25.632;2022-11-15T06:05:39;99831.06;;;10.95;100.00
23417;BME280;11881;42.432;25.632;2022-11-15T06:08:05;99831.91;;;10.96;100.00
23417;BME280;11881;42.432;25.632;2022-11-15T06:10:31;99835.28;;;10.98;100.00
23417;BME280;11881;42.432;25.632;2022-11-15T06:12:58;99834.06;;;11.02;100.00
23417;BME280;11881;42.432;25.632;2022-11-15T06:15:23;99833.34;;;11.00;100.00
23417;BME280;11881;42.432;25.632;2022-11-15T06:17:48;99838.94;;;10.97;100.00
23417;BME280;11881;42.432;25.632;2022-11-15T06:20:14;99839.47;;;10.90;100.00
23417;BME280;11881;42.432;25.632;2022-11-15T06:22:40;99838.94;;;10.97;100.00
23417;BME280;11881;42.432;25.632;2022-11-15T06:25:05;99845.34;;;10.94;100.00
23417;BME280;11881;42.432;25.632;2022-11-15T06:27:31;99842.13;;;10.90;100.00
23417;BME280;11881;42.432;25.632;2022-11-15T06:29:56;99835.47;;;10.85;100.00
23417;BME280;11881;42.432;25.632;2022-11-15T06:32:21;99843.72;;;10.82;100.00
23417;BME280;11881;42.432;25.632;2022-11-15T06:34:47;99841.97;;;10.92;100.00
23417;BME280;11881;42.432;25.632;2022-11-15T06:37:12;99841.97;;;10.92;100.00
23417;BME280;11881;42.432;25.632;2022-11-15T06:39:38;99844.28;;;10.97;100.00
23417;BME280;11881;42.432;25.632;2022-11-15T06:42:03;99841.13;;;10.91;100.00
23417;BME280;11881;42.432;25.632;2022-11-15T06:44:28;99845.03;;;10.87;100.00
23417;BME280;11881;42.432;25.632;2022-11-15T06:46:54;99843.72;;;10.82;100.00
23417;BME280;11881;42.432;25.632;2022-11-15T06:49:19;99842.63;;;10.84;100.00
23417;BME280;11881;42.432;25.632;2022-11-15T06:51:44;99847.81;;;10.86;100.00
23417;BME280;11881;42.432;25.632;2022-11-15T06:54:10;99844.38;;;10.95;100.00
23417;BME280;11881;42.432;25.632;2022-11-15T06:56:35;99836.78;;;10.90;100.00
23417;BME280;11881;42.432;25.632;2022-11-15T06:59:01;99847.03;;;10.95;100.00
23417;BME280;11881;42.432;25.632;2022-11-15T07:01:26;99837.13;;;10.97;100.00
23417;BME280;11881;42.432;25.632;2022-11-15T07:03:51;99850.31;;;10.99;100.00
23417;BME280;11881;42.432;25.632;2022-11-15T07:06:17;99848.75;;;10.96;100.00
23417;BME280;11881;42.432;25.632;2022-11-15T07:08:42;99848.75;;;10.96;100.00
23417;BME280;11881;42.432;25.632;2022-11-15T07:11:08;99840.34;;;11.01;100.00
23417;BME280;11881;42.432;25.632;2022-11-15T07:13:35;99831.66;;;10.99;100.00
23417;BME280;11881;42.432;25.632;2022-11-15T07:16:07;99834.56;;;10.96;100.00
23417;BME280;11881;42.432;25.632;2022-11-15T07:18:37;99837.13;;;10.97;100.00
23417;BME280;11881;42.432;25.632;2022-11-15T07:21:04;99830.44;;;11.03;100.00
23417;BME280;11881;42.432;25.632;2022-11-15T07:23:30;99828.34;;;11.06;100.00
23417;BME280;11881;42.432;25.632;2022-11-15T07:25:58;99835.03;;;11.01;100.00
23417;BME280;11881;42.432;25.632;2022-11-15T07:28:25;99829.81;;;10.99;100.00
23417;BME280;11881;42.432;25.632;2022-11-15T07:30:51;99832.34;;;11.01;100.00
23417;BME280;11881;42.432;25.632;2022-11-15T07:33:16;99828.66;;;11.13;100.00
23417;BME280;11881;42.432;25.632;2022-11-15T07:35:41;99827.06;;;11.22;100.00
23417;BME280;11881;42.432;25.632;2022-11-15T07:38:08;99828.75;;;11.23;100.00
23417;BME280;11881;42.432;25.632;2022-11-15T07:40:33;99826.63;;;11.37;100.00
23417;BME280;11881;42.432;25.632;2022-11-15T07:43:05;99826.72;;;11.36;100.00
23417;BME280;11881;42.432;25.632;2022-11-15T07:45:31;99826.63;;;11.37;100.00
23417;BME280;11881;42.432;25.632;2022-11-15T07:48:00;99824.72;;;11.28;100.00
23417;BME280;11881;42.432;25.632;2022-11-15T07:50:26;99824.84;;;11.27;100.00
23417;BME280;11881;42.432;25.632;2022-11-15T07:52:58;99832.91;;;11.15;100.00
23417;BME280;11881;42.432;25.632;2022-11-15T07:55:25;99834.00;;;11.13;100.00
23417;BME280;11881;42.432;25.632;2022-11-15T07:57:52;99828.88;;;11.21;100.00
23417;BME280;11881;42.432;25.632;2022-11-15T08:00:18;99836.59;;;11.24;100.00
23417;BME280;11881;42.432;25.632;2022-11-15T08:02:43;99833.84;;;11.26;100.00
23417;BME280;11881;42.432;25.632;2022-11-15T08:05:09;99828.97;;;11.31;100.00
23417;BME280;11881;42.432;25.632;2022-11-15T08:07:34;99829.66;;;11.33;100.00
23417;BME280;11881;42.432;25.632;2022-11-15T08:10:00;99832.47;;;11.31;100.00
23417;BME280;11881;42.432;25.632;2022-11-15T08:12:27;99828.59;;;11.24;100.00
23417;BME280;11881;42.432;25.632;2022-11-15T08:14:54;99828.81;;;11.32;100.00
23417;BME280;11881;42.432;25.632;2022-11-15T08:17:20;99823.63;;;11.31;100.00
23417;BME280;11881;42.432;25.632;2022-11-15T08:19:46;99825.16;;;11.33;100.00
23417;BME280;11881;42.432;25.632;2022-11-15T08:22:11;99820.00;;;11.41;100.00
23417;BME280;11881;42.432;25.632;2022-11-15T08:24:38;99827.47;;;11.38;100.00
23417;BME280;11881;42.432;25.632;2022-11-15T08:27:03;99821.13;;;11.39;100.00
23417;BME280;11881;42.432;25.632;2022-11-15T08:29:28;99821.97;;;11.18;100.00
23417;BME280;11881;42.432;25.632;2022-11-15T08:31:55;99821.53;;;11.13;100.00
23417;BME280;11881;42.432;25.632;2022-11-15T08:34:21;99819.44;;;11.17;100.00
23417;BME280;11881;42.432;25.632;2022-11-15T08:36:47;99822.56;;;11.22;100.00
23417;BME280;11881;42.432;25.632;2022-11-15T08:39:12;99823.16;;;11.26;100.00
23417;BME280;11881;42.432;25.632;2022-11-15T08:41:38;99819.84;;;11.33;100.00
23417;BME280;11881;42.432;25.632;2022-11-15T08:44:04;99805.38;;;11.36;100.00
23417;BME280;11881;42.432;25.632;2022-11-15T08:46:30;99804.81;;;11.32;100.00
23417;BME280;11881;42.432;25.632;2022-11-15T08:48:55;99804.16;;;11.40;100.00
23417;BME280;11881;42.432;25.632;2022-11-15T08:51:21;99813.59;;;11.44;100.00
23417;BME280;11881;42.432;25.632;2022-11-15T08:53:46;99803.06;;;11.42;100.00
23417;BME280;11881;42.432;25.632;2022-11-15T08:56:13;99800.88;;;11.36;100.00
23417;BME280;11881;42.432;25.632;2022-11-15T08:58:39;99796.91;;;11.52;100.00
23417;BME280;11881;42.432;25.632;2022-11-15T09:01:05;99795.81;;;11.54;100.00
23417;BME280;11881;42.432;25.632;2022-11-15T09:03:31;99791.94;;;11.37;100.00
23417;BME280;11881;42.432;25.632;2022-11-15T09:06:00;99788.06;;;11.30;100.00
23417;BME280;11881;42.432;25.632;2022-11-15T09:08:29;99778.09;;;11.53;100.00
23417;BME280;11881;42.432;25.632;2022-11-15T09:10:55;99778.06;;;11.43;100.00
23417;BME280;11881;42.432;25.632;2022-11-15T09:13:21;99776.03;;;11.36;100.00
23417;BME280;11881;42.432;25.632;2022-11-15T09:15:47;99784.69;;;11.49;100.00
23417;BME280;11881;42.432;25.632;2022-11-15T09:18:12;99777.53;;;11.50;100.00
23417;BME280;11881;42.432;25.632;2022-11-15T09:20:37;99764.19;;;11.80;100.00
23417;BME280;11881;42.432;25.632;2022-11-15T09:23:04;99766.53;;;11.94;100.00
23417;BME280;11881;42.432;25.632;2022-11-15T09:25:30;99763.59;;;12.17;100.00
23417;BME280;11881;42.432;25.632;2022-11-15T09:27:56;99756.81;;;11.93;100.00
23417;BME280;11881;42.432;25.632;2022-11-15T09:30:22;99756.97;;;11.71;100.00
23417;BME280;11881;42.432;25.632;2022-11-15T09:32:48;99759.91;;;11.68;100.00
23417;BME280;11881;42.432;25.632;2022-11-15T09:35:13;99759.16;;;11.56;100.00
23417;BME280;11881;42.432;25.632;2022-11-15T09:37:39;99748.63;;;11.55;100.00
23417;BME280;11881;42.432;25.632;2022-11-15T09:40:04;99743.38;;;11.74;100.00
23417;BME280;11881;42.432;25.632;2022-11-15T09:48:56;99735.44;;;11.63;100.00
23417;BME280;11881;42.432;25.632;2022-11-15T09:51:45;99734.75;;;11.61;100.00
23417;BME280;11881;42.432;25.632;2022-11-15T09:57:04;99723.84;;;11.73;100.00
23417;BME280;11881;42.432;25.632;2022-11-15T10:05:18;99715.34;;;11.89;100.00
23417;BME280;11881;42.432;25.632;2022-11-15T10:10:39;99704.56;;;11.60;100.00
23417;BME280;11881;42.432;25.632;2022-11-15T10:13:22;99703.34;;;11.43;100.00
23417;BME280;11881;42.432;25.632;2022-11-15T10:15:49;99698.56;;;11.37;100.00
23417;BME280;11881;42.432;25.632;2022-11-15T10:18:33;99691.59;;;11.56;100.00
23417;BME280;11881;42.432;25.632;2022-11-15T10:21:15;99683.50;;;11.67;100.00
23417;BME280;11881;42.432;25.632;2022-11-15T10:23:42;99680.75;;;11.88;100.00
23417;BME280;11881;42.432;25.632;2022-11-15T10:26:11;99681.28;;;11.72;100.00
23417;BME280;11881;42.432;25.632;2022-11-15T10:28:37;99679.03;;;11.77;100.00
23417;BME280;11881;42.432;25.632;2022-11-15T10:31:03;99677.03;;;11.69;100.00
23417;BME280;11881;42.432;25.632;2022-11-15T10:33:30;99673.69;;;11.77;100.00
23417;BME280;11881;42.432;25.632;2022-11-15T10:36:22;99668.31;;;11.67;100.00
23417;BME280;11881;42.432;25.632;2022-11-15T10:41:38;99668.28;;;11.58;100.00
23417;BME280;11881;42.432;25.632;2022-11-15T10:44:23;99660.19;;;11.69;100.00
23417;BME280;11881;42.432;25.632;2022-11-15T10:49:23;99649.50;;;11.69;100.00
23417;BME280;11881;42.432;25.632;2022-11-15T10:51:59;99656.13;;;11.75;100.00
23417;BME280;11881;42.432;25.632;2022-11-15T10:54:39;99650.13;;;11.82;100.00
23417;BME280;11881;42.432;25.632;2022-11-15T10:57:18;99646.47;;;11.93;100.00
23417;BME280;11881;42.432;25.632;2022-11-15T10:59:46;99644.38;;;11.87;100.00
23417;BME280;11881;42.432;25.632;2022-11-15T11:02:35;99652.66;;;11.93;100.00
23417;BME280;11881;42.432;25.632;2022-11-15T11:05:06;99641.66;;;11.77;100.00
23417;BME280;11881;42.432;25.632;2022-11-15T11:07:34;99640.28;;;11.83;100.00
23417;BME280;11881;42.432;25.632;2022-11-15T11:10:01;99637.50;;;11.84;100.00
23417;BME280;11881;42.432;25.632;2022-11-15T11:12:29;99630.31;;;11.85;100.00
23417;BME280;11881;42.432;25.632;2022-11-15T11:14:57;99626.53;;;11.97;100.00
23417;BME280;11881;42.432;25.632;2022-11-15T11:17:31;99620.91;;;12.10;100.00
23417;BME280;11881;42.432;25.632;2022-11-15T11:20:29;99625.00;;;12.14;100.00
23417;BME280;11881;42.432;25.632;2022-11-15T11:25:39;99622.72;;;11.99;100.00
23417;BME280;11881;42.432;25.632;2022-11-15T11:28:21;99619.66;;;11.94;100.00
23417;BME280;11881;42.432;25.632;2022-11-15T11:33:45;99614.59;;;11.91;100.00
23417;BME280;11881;42.432;25.632;2022-11-15T11:36:26;99602.78;;;11.94;100.00
23417;BME280;11881;42.432;25.632;2022-11-15T11:44:39;99599.84;;;11.97;100.00
23417;BME280;11881;42.432;25.632;2022-11-15T11:49:54;99593.94;;;12.03;100.00
23417;BME280;11881;42.432;25.632;2022-11-15T11:55:26;99576.94;;;12.04;100.00
23417;BME280;11881;42.432;25.632;2022-11-15T12:00:47;99573.97;;;11.97;100.00
23417;BME280;11881;42.432;25.632;2022-11-15T12:03:40;99576.22;;;11.92;100.00
23417;BME280;11881;42.432;25.632;2022-11-15T12:06:32;99565.13;;;12.07;100.00
23417;BME280;11881;42.432;25.632;2022-11-15T12:09:27;99565.81;;;11.99;100.00
23417;BME280;11881;42.432;25.632;2022-11-15T12:12:17;99558.94;;;11.96;100.00
23417;BME280;11881;42.432;25.632;2022-11-15T12:14:53;99556.56;;;12.03;100.00
23417;BME280;11881;42.432;25.632;2022-11-15T12:17:25;99548.13;;;12.08;100.00
23417;BME280;11881;42.432;25.632;2022-11-15T12:19:55;99552.16;;;12.21;100.00
23417;BME280;11881;42.432;25.632;2022-11-15T12:27:36;99531.38;;;12.15;100.00
23417;BME280;11881;42.432;25.632;2022-11-15T12:30:21;99531.69;;;12.12;100.00
23417;BME280;11881;42.432;25.632;2022-11-15T12:32:54;99527.72;;;12.16;100.00
23417;BME280;11881;42.432;25.632;2022-11-15T12:35:34;99521.38;;;12.17;100.00
23417;BME280;11881;42.432;25.632;2022-11-15T12:38:00;99525.03;;;12.16;100.00
23417;BME280;11881;42.432;25.632;2022-11-15T12:40:28;99525.03;;;12.26;100.00
23417;BME280;11881;42.432;25.632;2022-11-15T12:45:32;99513.78;;;12.22;100.00
23417;BME280;11881;42.432;25.632;2022-11-15T12:56:18;99508.16;;;12.25;100.00
23417;BME280;11881;42.432;25.632;2022-11-15T12:58:56;99508.75;;;12.19;100.00
23417;BME280;11881;42.432;25.632;2022-11-15T13:06:54;99504.66;;;12.06;100.00
23417;BME280;11881;42.432;25.632;2022-11-15T13:12:09;99504.66;;;12.06;100.00
23417;BME280;11881;42.432;25.632;2022-11-15T13:17:16;99501.56;;;12.30;100.00
23417;BME280;11881;42.432;25.632;2022-11-15T13:19:43;99496.91;;;12.22;100.00
23417;BME280;11881;42.432;25.632;2022-11-15T13:22:09;99487.81;;;12.15;100.00
23417;BME280;11881;42.432;25.632;2022-11-15T13:24:54;99490.88;;;12.20;100.00
23417;BME280;11881;42.432;25.632;2022-11-15T13:27:20;99490.31;;;12.26;100.00
23417;BME280;11881;42.432;25.632;2022-11-15T13:29:46;99485.13;;;12.24;100.00
23417;BME280;11881;42.432;25.632;2022-11-15T13:32:13;99484.56;;;12.21;100.00
23417;BME280;11881;42.432;25.632;2022-11-15T13:34:43;99481.47;;;12.25;100.00
23417;BME280;11881;42.432;25.632;2022-11-15T13:39:46;99481.47;;;12.25;100.00
23417;BME280;11881;42.432;25.632;2022-11-15T13:42:18;99475.44;;;12.23;100.00
23417;BME280;11881;42.432;25.632;2022-11-15T13:45:00;99481.31;;;12.17;100.00
23417;BME280;11881;42.432;25.632;2022-11-15T13:47:27;99475.13;;;12.17;100.00
23417;BME280;11881;42.432;25.632;2022-11-15T13:49:57;99476.84;;;12.08;100.00
23417;BME280;11881;42.432;25.632;2022-11-15T13:52:27;99475.31;;;12.06;100.00
23417;BME280;11881;42.432;25.632;2022-11-15T13:55:13;99465.28;;;12.17;100.00
23417;BME280;11881;42.432;25.632;2022-11-15T14:00:41;99457.03;;;12.11;100.00
23417;BME280;11881;42.432;25.632;2022-11-15T14:05:43;99455.34;;;12.10;100.00
23417;BME280;11881;42.432;25.632;2022-11-15T14:08:24;99447.75;;;12.15;100.00
23417;BME280;11881;42.432;25.632;2022-11-15T14:11:06;99444.38;;;12.13;100.00
23417;BME280;11881;42.432;25.632;2022-11-15T14:13:33;99447.53;;;11.89;100.00
23417;BME280;11881;42.432;25.632;2022-11-15T14:16:19;99447.22;;;11.82;100.00
23417;BME280;11881;42.432;25.632;2022-11-15T14:18:50;99443.31;;;11.86;100.00
23417;BME280;11881;42.432;25.632;2022-11-15T14:21:17;99439.06;;;11.93;100.00
23417;BME280;11881;42.432;25.632;2022-11-15T14:23:43;99438.78;;;11.96;100.00
23417;BME280;11881;42.432;25.632;2022-11-15T14:26:28;99433.44;;;12.06;100.00
23417;BME280;11881;42.432;25.632;2022-11-15T14:28:54;99437.63;;;12.09;100.00
23417;BME280;11881;42.432;25.632;2022-11-15T14:31:20;99432.09;;;12.30;100.00
23417;BME280;11881;42.432;25.632;2022-11-15T14:33:46;99435.56;;;12.40;100.00
23417;BME280;11881;42.432;25.632;2022-11-15T14:36:16;99429.13;;;12.33;100.00
23417;BME280;11881;42.432;25.632;2022-11-15T14:38:43;99424.47;;;12.35;100.00